Time;durP1;ratioP1;P1;durP2;ratioP2;P2;SDS_P1;SDS_P2;PMS_P1;PMS_P2;Temp;Humidity;BMP_temperature;BMP_pressure;BME280_temperature;BME280_humidity;BME280_pressure;Samples;Min_cycle;Max_cycle;Signal;HPM_P1;HPM_P2
2023/06/18 19:28:13;;;;;;;7.40;6.80;;;24.40;75.80;;;;;;5104504;27;20323;-55
2023/06/18 19:30:41;;;;;;;;;;;24.30;76.10;;;;;;5086912;28;20046;-56
2023/06/18 19:33:06;;;;;;;7.18;6.57;;;24.20;74.90;;;;;;5090332;28;20518;-52
2023/06/18 19:35:32;;;;;;;;;;;24.20;75.50;;;;;;5085603;28;20068;-55
2023/06/18 19:37:57;;;;;;;34.92;13.55;;;24.20;75.90;;;;;;5078755;28;20011;-53
2023/06/18 19:40:23;;;;;;;9.85;8.07;;;24.20;76.10;;;;;;5077156;28;20089;-53
2023/06/18 19:42:49;;;;;;;42.90;18.15;;;24.10;75.90;;;;;;5080813;28;20036;-53
2023/06/18 19:45:14;;;;;;;126.47;46.42;;;24.20;76.30;;;;;;5084975;28;20067;-52
2023/06/18 19:47:40;;;;;;;240.75;99.82;;;24.20;76.90;;;;;;5080536;28;20648;-52
2023/06/18 19:50:06;;;;;;;137.07;61.35;;;24.10;78.90;;;;;;5084067;28;20076;-50
2023/06/18 19:52:31;;;;;;;71.03;34.70;;;24.10;79.30;;;;;;5079169;28;20028;-51
2023/06/18 19:54:57;;;;;;;60.03;26.40;;;24.00;79.50;;;;;;5082840;28;20037;-55
2023/06/18 19:57:22;;;;;;;53.28;24.90;;;23.90;79.70;;;;;;5075147;28;20063;-53
2023/06/18 19:59:48;;;;;;;24.52;14.05;;;23.90;80.30;;;;;;5083965;28;20519;-53
2023/06/18 20:02:14;;;;;;;40.75;18.55;;;23.90;79.70;;;;;;5072193;28;20041;-55
2023/06/18 20:04:39;;;;;;;27.48;14.38;;;23.90;79.80;;;;;;5085982;28;20493;-55
2023/06/18 20:07:05;;;;;;;29.58;14.43;;;23.80;79.80;;;;;;5077453;28;20052;-57
2023/06/18 20:09:33;;;;;;;24.27;12.23;;;23.80;80.00;;;;;;5084302;28;20040;-54
2023/06/18 20:11:59;;;;;;;46.35;21.00;;;23.80;80.40;;;;;;5077529;28;20510;-55
2023/06/18 20:14:25;;;;;;;29.38;17.50;;;23.70;79.90;;;;;;5086363;28;20525;-55
2023/06/18 20:16:50;;;;;;;27.30;15.77;;;23.70;79.70;;;;;;5081374;28;20033;-56
2023/06/18 20:19:16;;;;;;;19.45;13.07;;;23.70;80.10;;;;;;5082183;28;20489;-55
2023/06/18 20:21:41;;;;;;;10.75;8.63;;;23.70;79.50;;;;;;5077678;28;20037;-53
2023/06/18 20:24:07;;;;;;;20.17;7.93;;;23.70;79.00;;;;;;5086611;28;20043;-51
2023/06/18 20:26:33;;;;;;;22.40;9.57;;;23.70;79.10;;;;;;5076705;28;20032;-55
2023/06/18 20:29:00;;;;;;;8.68;7.80;;;23.60;79.80;;;;;;5074980;28;20703;-54
2023/06/18 20:31:25;;;;;;;9.90;7.40;;;23.60;79.00;;;;;;5074784;28;20089;-51
2023/06/18 20:33:51;;;;;;;11.45;8.80;;;23.60;78.80;;;;;;5082969;28;20384;-54
2023/06/18 20:36:16;;;;;;;10.45;8.95;;;23.60;78.40;;;;;;5077155;28;20045;-50
2023/06/18 20:38:42;;;;;;;9.00;8.27;;;23.60;78.70;;;;;;5069073;28;20620;-50
2023/06/18 20:41:10;;;;;;;11.07;8.43;;;23.60;78.60;;;;;;5064861;28;20047;-50
2023/06/18 20:43:36;;;;;;;9.80;8.95;;;23.60;78.60;;;;;;5065429;28;20055;-51
2023/06/18 20:46:01;;;;;;;8.48;7.85;;;23.50;78.30;;;;;;5070641;28;20561;-55
2023/06/18 20:48:27;;;;;;;7.78;7.10;;;23.60;78.20;;;;;;5061873;28;20036;-50
2023/06/18 20:50:52;;;;;;;76.30;12.18;;;23.50;78.10;;;;;;5068106;28;20116;-49
2023/06/18 20:53:18;;;;;;;83.15;12.95;;;23.50;78.00;;;;;;5065759;28;20062;-52
2023/06/18 20:55:44;;;;;;;22.73;9.10;;;23.50;78.20;;;;;;5069189;28;20460;-54
2023/06/18 20:58:09;;;;;;;57.20;12.55;;;23.50;78.30;;;;;;5055253;28;20044;-52
2023/06/18 21:00:35;;;;;;;45.75;9.90;;;23.50;78.30;;;;;;5069856;28;20040;-50
2023/06/18 21:03:00;;;;;;;29.42;8.35;;;23.50;78.20;;;;;;5060789;28;20036;-53
2023/06/18 21:05:26;;;;;;;8.52;7.63;;;23.50;78.50;;;;;;5071873;28;20044;-50
2023/06/18 21:07:51;;;;;;;8.13;6.82;;;23.50;78.50;;;;;;5064280;28;20025;-52
2023/06/18 21:10:17;;;;;;;9.85;7.20;;;23.40;78.40;;;;;;5066925;28;20490;-49
2023/06/18 21:12:42;;;;;;;9.57;7.60;;;23.40;78.30;;;;;;5059768;28;20109;-55
2023/06/18 21:15:08;;;;;;;12.02;7.30;;;23.40;78.20;;;;;;5071539;28;20037;-50
2023/06/18 21:17:34;;;;;;;11.75;7.90;;;23.40;78.10;;;;;;5067839;28;20090;-50
2023/06/18 21:19:59;;;;;;;11.50;8.30;;;23.40;78.10;;;;;;5062909;28;20036;-50
2023/06/18 21:22:25;;;;;;;10.25;9.30;;;23.30;77.90;;;;;;5059752;28;20044;-51
2023/06/18 21:24:51;;;;;;;12.68;10.15;;;23.30;78.10;;;;;;5071762;28;20037;-50
2023/06/18 21:27:16;;;;;;;43.78;12.68;;;23.30;78.10;;;;;;5069774;28;20128;-50
2023/06/18 21:29:42;;;;;;;13.35;10.90;;;23.30;78.00;;;;;;5066183;28;20509;-50
2023/06/18 21:32:08;;;;;;;44.50;12.02;;;23.20;78.10;;;;;;5065263;28;20124;-53
2023/06/18 21:34:33;;;;;;;26.02;11.48;;;23.20;78.10;;;;;;5058242;28;20028;-50
2023/06/18 21:36:59;;;;;;;15.30;8.93;;;23.20;78.20;;;;;;5055165;28;20040;-50
2023/06/18 21:39:24;;;;;;;12.10;9.38;;;23.20;78.30;;;;;;5056203;28;20036;-53
2023/06/18 21:41:52;;;;;;;12.18;8.98;;;23.10;78.40;;;;;;5071457;28;20120;-51
2023/06/18 21:44:17;;;;;;;62.95;10.98;;;23.10;78.10;;;;;;5069310;28;20044;-51
2023/06/18 21:46:43;;;;;;;33.03;8.98;;;23.10;77.80;;;;;;5071386;28;20077;-51
2023/06/18 21:49:08;;;;;;;8.93;8.13;;;23.10;77.70;;;;;;5066198;28;20101;-51
2023/06/18 21:51:34;;;;;;;8.85;6.90;;;23.10;77.60;;;;;;5070521;28;20032;-49
2023/06/18 21:53:59;;;;;;;22.42;8.35;;;23.00;77.20;;;;;;5069281;28;20524;-49
2023/06/18 21:56:25;;;;;;;9.52;7.28;;;23.00;77.40;;;;;;5065515;28;20044;-53
2023/06/18 21:58:51;;;;;;;8.02;7.18;;;23.00;77.40;;;;;;5067799;28;20414;-52
2023/06/18 22:01:16;;;;;;;14.20;8.10;;;23.00;77.10;;;;;;5071203;28;20501;-50
2023/06/18 22:03:42;;;;;;;9.48;8.25;;;23.00;77.00;;;;;;5069297;28;20036;-50
2023/06/18 22:06:08;;;;;;;10.55;8.35;;;22.90;77.00;;;;;;5068566;28;20036;-50
2023/06/18 22:08:48;;;;;;;10.68;8.23;;;22.90;77.00;;;;;;5069754;28;20041;-50
2023/06/18 22:11:14;;;;;;;12.73;7.65;;;22.90;76.60;;;;;;5070311;28;20041;-51
2023/06/18 22:13:40;;;;;;;7.97;7.03;;;22.90;76.80;;;;;;5069069;28;20038;-51
2023/06/18 22:16:06;;;;;;;11.43;7.57;;;22.90;76.80;;;;;;5071069;28;20040;-50
2023/06/18 22:18:31;;;;;;;;;;;22.90;76.80;;;;;;5061831;28;20032;-53
2023/06/18 22:20:57;;;;;;;7.55;6.85;;;22.80;76.60;;;;;;5070678;28;19916;-50
2023/06/18 22:23:23;;;;;;;16.50;8.02;;;22.80;76.80;;;;;;5069339;28;20139;-50
2023/06/18 22:25:48;;;;;;;;;;;22.80;77.00;;;;;;5070310;28;20444;-51
2023/06/18 22:28:15;;;;;;;9.82;6.88;;;22.80;77.50;;;;;;5070738;28;20412;-54
2023/06/18 22:30:41;;;;;;;7.70;7.05;;;22.80;78.00;;;;;;5066956;28;20041;-50
2023/06/18 22:33:07;;;;;;;7.95;6.93;;;22.80;77.90;;;;;;5070454;28;20036;-50
2023/06/18 22:35:32;;;;;;;;;;;22.70;77.90;;;;;;5067736;28;20349;-52
2023/06/18 22:37:58;;;;;;;8.65;7.28;;;22.70;77.70;;;;;;5069982;28;19946;-49
2023/06/18 22:40:25;;;;;;;9.75;7.53;;;22.70;77.80;;;;;;5060674;28;20043;-50
2023/06/18 22:42:54;;;;;;;7.85;7.03;;;22.70;77.80;;;;;;5068808;28;20044;-50
2023/06/18 22:45:20;;;;;;;8.85;6.60;;;22.60;77.70;;;;;;5068732;28;20090;-50
2023/06/18 22:47:46;;;;;;;10.70;7.55;;;22.60;77.50;;;;;;5069930;28;20370;-50
2023/06/18 22:50:11;;;;;;;;;;;22.60;77.60;;;;;;5069074;28;20085;-52
2023/06/18 22:52:37;;;;;;;7.57;6.97;;;22.60;76.90;;;;;;5066543;28;19916;-52
2023/06/18 22:55:03;;;;;;;10.15;7.80;;;22.60;77.40;;;;;;5064024;28;20097;-54
2023/06/18 22:57:29;;;;;;;9.68;6.57;;;22.60;77.30;;;;;;5067480;28;21607;-53
2023/06/18 22:59:54;;;;;;;;;;;22.50;76.90;;;;;;5054795;28;20048;-51
2023/06/18 23:02:20;;;;;;;7.10;6.45;;;22.60;76.40;;;;;;5066312;28;19939;-50
2023/06/18 23:04:45;;;;;;;6.85;6.15;;;22.60;76.60;;;;;;5054067;28;20122;-54
2023/06/18 23:07:11;;;;;;;8.80;6.75;;;22.50;76.30;;;;;;5058373;28;20378;-52
2023/06/18 23:09:36;;;;;;;6.90;6.30;;;22.50;76.30;;;;;;5058074;28;20512;-53
2023/06/18 23:12:02;;;;;;;7.47;6.72;;;22.50;76.30;;;;;;5061657;28;20036;-52
2023/06/18 23:14:28;;;;;;;7.32;6.60;;;22.40;76.60;;;;;;5060000;28;20107;-53
2023/06/18 23:16:54;;;;;;;8.93;7.10;;;22.40;76.70;;;;;;5050765;28;20056;-50
2023/06/18 23:19:19;;;;;;;;;;;22.30;76.80;;;;;;5061510;28;20112;-54
2023/06/18 23:21:45;;;;;;;6.93;6.28;;;22.30;76.90;;;;;;5049733;28;19954;-53
2023/06/18 23:24:11;;;;;;;;;;;22.30;76.60;;;;;;5050420;28;20041;-53
2023/06/18 23:26:39;;;;;;;8.02;6.28;;;22.30;76.40;;;;;;5049731;28;19924;-49
2023/06/18 23:29:09;;;;;;;6.85;6.25;;;22.30;76.30;;;;;;5049732;28;20458;-49
2023/06/18 23:31:37;;;;;;;9.07;6.63;;;22.30;76.50;;;;;;5068909;28;20040;-53
2023/06/18 23:34:03;;;;;;;6.53;5.85;;;22.40;76.00;;;;;;5069380;28;20485;-50
2023/06/18 23:36:29;;;;;;;10.63;6.68;;;22.40;76.00;;;;;;5050631;28;20056;-53
2023/06/18 23:38:54;;;;;;;;;;;22.40;76.00;;;;;;5049616;28;20056;-50
2023/06/18 23:41:20;;;;;;;7.32;6.60;;;22.40;75.70;;;;;;5056554;28;19916;-53
2023/06/18 23:43:45;;;;;;;;;;;22.40;75.50;;;;;;5062900;28;20033;-50
2023/06/18 23:46:11;;;;;;;8.70;5.53;;;22.40;75.30;;;;;;5067537;28;19916;-50
2023/06/18 23:48:37;;;;;;;;;;;22.40;75.30;;;;;;5069580;28;20032;-50
2023/06/18 23:51:02;;;;;;;7.45;5.65;;;22.40;75.30;;;;;;5057877;28;20323;-53
2023/06/18 23:53:28;;;;;;;;;;;22.40;75.00;;;;;;5050368;28;20401;-53
2023/06/18 23:55:53;;;;;;;6.68;6.10;;;22.40;75.00;;;;;;5058888;28;19977;-50
2023/06/18 23:58:19;;;;;;;27.48;7.13;;;22.40;75.10;;;;;;5064670;28;20040;-51
